Disclaimer

Please do not use the information listed here in-flight or in-navigation, as they are not provided to us by the airports but are provided by volunteers, so they might be outdated.

Search


Regions


Airport information page

Radio informations:
KRASNODAR KRUG - 121.3 MHz
KRASNODAR TAXIIN - 119.0 MHz
KRASNODRA ATIS - 121.8 MHz

Airport informations:
Latitude: 45° 02' 04.88" N
Longitude: 039° 10' 13.94" E
Elevation: 118 feet - 36 meters
Operating hours: 24 hour operations
Operating agency: Civil government, landing fees and diplomatic clearance may be required
Timezone: UTC+3(+4DT)
Fuel: Jet A1, without icing nhibitor.

Runway information:
05R/23L - 9835 x 145 feet< - >2998 x 44 meters
05L/23R - 7218 x 160 feet< - >2200 x 49 meters

Recent METARs:
URKK 192030Z 08003MPS CAVOK 06/03 Q1019 R05R/CLRD70 TEMPO 08008G13MPS RMK QFE761
URKK 192100Z 06003MPS 9999 -RA NSC 06/03 Q1018 R05R/CLRD70 TEMPO 08008G13MPS RMK QFE761
URKK 192130Z 07004MPS CAVOK 05/03 Q1018 R05R/CLRD70 TEMPO 08008G13MPS RMK QFE760

Airport on the map: